sensor_id;sensor_type;location;lat;lon;timestamp;pressure;altitude;pressure_sealevel;temperature;humidity
30302;BME280;17111;52.130;5.028;2023-03-14T00:01:10;98926.97;;;18.32;46.46
30302;BME280;17111;52.130;5.028;2023-03-14T00:03:38;98929.63;;;18.32;45.88
30302;BME280;17111;52.130;5.028;2023-03-14T00:06:05;98923.44;;;18.31;46.15
30302;BME280;17111;52.130;5.028;2023-03-14T00:08:32;98923.44;;;18.31;46.10
30302;BME280;17111;52.130;5.028;2023-03-14T00:13:33;98920.78;;;18.31;46.19
30302;BME280;17111;52.130;5.028;2023-03-14T00:16:07;98919.94;;;18.31;46.16
30302;BME280;17111;52.130;5.028;2023-03-14T00:18:35;98918.31;;;18.30;46.06
30302;BME280;17111;52.130;5.028;2023-03-14T00:21:02;98914.81;;;18.29;46.23
30302;BME280;17111;52.130;5.028;2023-03-14T00:23:30;98918.50;;;18.28;46.37
30302;BME280;17111;52.130;5.028;2023-03-14T00:26:23;98920.56;;;18.26;46.07
30302;BME280;17111;52.130;5.028;2023-03-14T00:28:53;98915.81;;;18.28;46.19
30302;BME280;17111;52.130;5.028;2023-03-14T00:31:20;98918.69;;;18.27;46.49
30302;BME280;17111;52.130;5.028;2023-03-14T00:33:47;98918.88;;;18.25;46.09
30302;BME280;17111;52.130;5.028;2023-03-14T00:36:16;98915.38;;;18.24;46.39
30302;BME280;17111;52.130;5.028;2023-03-14T00:38:47;98910.22;;;18.23;46.07
30302;BME280;17111;52.130;5.028;2023-03-14T00:41:16;98906.72;;;18.22;46.21
30302;BME280;17111;52.130;5.028;2023-03-14T00:43:44;98913.94;;;18.22;46.27
30302;BME280;17111;52.130;5.028;2023-03-14T00:46:11;98921.16;;;18.21;46.40
30302;BME280;17111;52.130;5.028;2023-03-14T00:48:38;98924.84;;;18.20;46.23
30302;BME280;17111;52.130;5.028;2023-03-14T00:51:06;98917.03;;;18.19;46.19
30302;BME280;17111;52.130;5.028;2023-03-14T00:53:38;98929.78;;;18.17;46.06
30302;BME280;17111;52.130;5.028;2023-03-14T00:56:07;98934.97;;;18.18;46.30
30302;BME280;17111;52.130;5.028;2023-03-14T00:58:34;98944.06;;;18.17;46.24
30302;BME280;17111;52.130;5.028;2023-03-14T01:01:30;98940.94;;;18.14;46.17
30302;BME280;17111;52.130;5.028;2023-03-14T01:03:56;98927.31;;;18.15;46.33
30302;BME280;17111;52.130;5.028;2023-03-14T01:06:28;98938.03;;;18.15;46.16
30302;BME280;17111;52.130;5.028;2023-03-14T01:08:55;98924.84;;;18.14;46.66
30302;BME280;17111;52.130;5.028;2023-03-14T01:11:28;98923.19;;;18.13;46.34
30302;BME280;17111;52.130;5.028;2023-03-14T01:13:56;98931.44;;;18.11;46.49
30302;BME280;17111;52.130;5.028;2023-03-14T01:16:25;98927.94;;;18.11;46.32
30302;BME280;17111;52.130;5.028;2023-03-14T01:18:52;98927.09;;;18.10;46.51
30302;BME280;17111;52.130;5.028;2023-03-14T01:21:27;98921.94;;;18.09;46.25
30302;BME280;17111;52.130;5.028;2023-03-14T01:23:56;98924.81;;;18.07;46.32
30302;BME280;17111;52.130;5.028;2023-03-14T01:26:24;98914.09;;;18.07;46.91
30302;BME280;17111;52.130;5.028;2023-03-14T01:28:54;98924.00;;;18.07;46.30
30302;BME280;17111;52.130;5.028;2023-03-14T01:31:22;98933.91;;;18.06;46.49
30302;BME280;17111;52.130;5.028;2023-03-14T01:33:49;98930.56;;;18.04;46.93
30302;BME280;17111;52.130;5.028;2023-03-14T01:36:16;98931.63;;;18.03;46.71
30302;BME280;17111;52.130;5.028;2023-03-14T01:38:42;98920.06;;;18.03;46.60
30302;BME280;17111;52.130;5.028;2023-03-14T01:41:14;98921.09;;;18.02;46.83
30302;BME280;17111;52.130;5.028;2023-03-14T01:43:41;98919.44;;;18.00;46.74
30302;BME280;17111;52.130;5.028;2023-03-14T01:51:36;98907.44;;;17.96;46.57
30302;BME280;17111;52.130;5.028;2023-03-14T01:54:10;98920.84;;;17.96;46.73
30302;BME280;17111;52.130;5.028;2023-03-14T01:56:38;98915.50;;;17.96;46.68
30302;BME280;17111;52.130;5.028;2023-03-14T01:59:08;98911.81;;;17.97;46.73
30302;BME280;17111;52.130;5.028;2023-03-14T02:01:38;98909.53;;;17.94;46.78
30302;BME280;17111;52.130;5.028;2023-03-14T02:04:07;98898.81;;;17.94;46.88
30302;BME280;17111;52.130;5.028;2023-03-14T02:06:42;98907.03;;;17.93;46.83
30302;BME280;17111;52.130;5.028;2023-03-14T02:09:11;98889.72;;;17.95;46.84
30302;BME280;17111;52.130;5.028;2023-03-14T02:11:38;98885.56;;;17.93;46.65
30302;BME280;17111;52.130;5.028;2023-03-14T02:14:04;98883.94;;;17.92;46.66
30302;BME280;17111;52.130;5.028;2023-03-14T02:16:31;98884.97;;;17.91;46.52
30302;BME280;17111;52.130;5.028;2023-03-14T02:18:58;98888.47;;;17.91;46.70
30302;BME280;17111;52.130;5.028;2023-03-14T02:24:59;98881.66;;;17.89;46.88
30302;BME280;17111;52.130;5.028;2023-03-14T02:27:23;98874.47;;;17.89;46.45
30302;BME280;17111;52.130;5.028;2023-03-14T02:29:54;98871.97;;;17.88;46.96
30302;BME280;17111;52.130;5.028;2023-03-14T02:32:22;98867.63;;;17.87;46.69
30302;BME280;17111;52.130;5.028;2023-03-14T02:34:54;98878.34;;;17.87;47.14
30302;BME280;17111;52.130;5.028;2023-03-14T02:37:23;98883.72;;;17.87;46.88
30302;BME280;17111;52.130;5.028;2023-03-14T02:39:51;98873.38;;;17.84;46.80
30302;BME280;17111;52.130;5.028;2023-03-14T02:42:17;98869.88;;;17.83;47.08
30302;BME280;17111;52.130;5.028;2023-03-14T02:45:25;98864.75;;;17.82;46.90
30302;BME280;17111;52.130;5.028;2023-03-14T02:47:43;98856.69;;;17.82;47.27
30302;BME280;17111;52.130;5.028;2023-03-14T02:50:16;98865.75;;;17.81;46.95
30302;BME280;17111;52.130;5.028;2023-03-14T02:52:43;98866.78;;;17.80;46.79
30302;BME280;17111;52.130;5.028;2023-03-14T02:55:10;98863.28;;;17.79;47.03
30302;BME280;17111;52.130;5.028;2023-03-14T02:57:36;98864.31;;;17.78;46.97
30302;BME280;17111;52.130;5.028;2023-03-14T03:00:03;98853.59;;;17.78;46.73
30302;BME280;17111;52.130;5.028;2023-03-14T03:02:31;98851.09;;;17.76;46.87
30302;BME280;17111;52.130;5.028;2023-03-14T03:04:58;98861.81;;;17.76;47.35
30302;BME280;17111;52.130;5.028;2023-03-14T03:07:24;98851.31;;;17.75;46.98
30302;BME280;17111;52.130;5.028;2023-03-14T03:09:51;98858.31;;;17.76;47.44
30302;BME280;17111;52.130;5.028;2023-03-14T03:12:17;98861.19;;;17.74;47.03
30302;BME280;17111;52.130;5.028;2023-03-14T03:14:44;98856.03;;;17.73;46.79
30302;BME280;17111;52.130;5.028;2023-03-14T03:17:10;98850.66;;;17.73;47.02
30302;BME280;17111;52.130;5.028;2023-03-14T03:19:37;98853.34;;;17.73;47.03
30302;BME280;17111;52.130;5.028;2023-03-14T03:22:04;98849.81;;;17.72;47.07
30302;BME280;17111;52.130;5.028;2023-03-14T03:24:31;98841.78;;;17.72;47.21
30302;BME280;17111;52.130;5.028;2023-03-14T03:26:57;98846.53;;;17.70;47.21
30302;BME280;17111;52.130;5.028;2023-03-14T03:29:24;98841.16;;;17.70;46.83
30302;BME280;17111;52.130;5.028;2023-03-14T03:31:50;98844.88;;;17.69;47.10
30302;BME280;17111;52.130;5.028;2023-03-14T03:34:17;98840.53;;;17.68;46.93
30302;BME280;17111;52.130;5.028;2023-03-14T03:36:43;98837.84;;;17.68;47.29
30302;BME280;17111;52.130;5.028;2023-03-14T03:39:10;98845.88;;;17.68;46.97
30302;BME280;17111;52.130;5.028;2023-03-14T03:41:36;98840.53;;;17.68;47.27
30302;BME280;17111;52.130;5.028;2023-03-14T03:44:03;98840.53;;;17.68;46.69
30302;BME280;17111;52.130;5.028;2023-03-14T03:46:30;98837.84;;;17.68;47.14
30302;BME280;17111;52.130;5.028;2023-03-14T03:48:59;98843.41;;;17.67;47.01
30302;BME280;17111;52.130;5.028;2023-03-14T03:51:27;98838.06;;;17.67;47.13
30302;BME280;17111;52.130;5.028;2023-03-14T03:53:53;98845.28;;;17.66;46.72
30302;BME280;17111;52.130;5.028;2023-03-14T03:56:20;98846.31;;;17.65;47.09
30302;BME280;17111;52.130;5.028;2023-03-14T03:58:46;98841.78;;;17.66;47.25
30302;BME280;17111;52.130;5.028;2023-03-14T04:01:13;98846.31;;;17.65;46.97
30302;BME280;17111;52.130;5.028;2023-03-14T04:03:39;98835.59;;;17.65;47.01
30302;BME280;17111;52.130;5.028;2023-03-14T04:06:11;98836.59;;;17.64;47.37
30302;BME280;17111;52.130;5.028;2023-03-14T04:08:39;98840.13;;;17.65;46.81
30302;BME280;17111;52.130;5.028;2023-03-14T04:11:07;98836.59;;;17.64;47.38
30302;BME280;17111;52.130;5.028;2023-03-14T04:13:33;98834.94;;;17.63;47.43
30302;BME280;17111;52.130;5.028;2023-03-14T04:16:00;98834.94;;;17.63;47.19
30302;BME280;17111;52.130;5.028;2023-03-14T04:18:27;98832.25;;;17.63;47.15
30302;BME280;17111;52.130;5.028;2023-03-14T04:20:55;98829.59;;;17.63;47.19
30302;BME280;17111;52.130;5.028;2023-03-14T04:23:23;98850.41;;;17.61;47.28
30302;BME280;17111;52.130;5.028;2023-03-14T04:25:53;98841.34;;;17.62;47.26
30302;BME280;17111;52.130;5.028;2023-03-14T04:28:19;98843.38;;;17.60;47.34
30302;BME280;17111;52.130;5.028;2023-03-14T04:30:46;98843.38;;;17.60;47.56
30302;BME280;17111;52.130;5.028;2023-03-14T04:33:12;98837.19;;;17.60;47.04
30302;BME280;17111;52.130;5.028;2023-03-14T04:35:44;98833.69;;;17.59;47.31
30302;BME280;17111;52.130;5.028;2023-03-14T04:38:11;98833.69;;;17.59;47.58
30302;BME280;17111;52.130;5.028;2023-03-14T04:40:39;98834.72;;;17.58;47.34
30302;BME280;17111;52.130;5.028;2023-03-14T04:43:07;98839.25;;;17.58;47.27
30302;BME280;17111;52.130;5.028;2023-03-14T04:45:34;98829.56;;;17.57;46.97
30302;BME280;17111;52.130;5.028;2023-03-14T04:48:00;98840.25;;;17.57;47.65
30302;BME280;17111;52.130;5.028;2023-03-14T04:50:27;98827.91;;;17.56;47.58
30302;BME280;17111;52.130;5.028;2023-03-14T04:52:53;98822.75;;;17.54;47.36
30302;BME280;17111;52.130;5.028;2023-03-14T04:55:20;98827.28;;;17.54;47.38
30302;BME280;17111;52.130;5.028;2023-03-14T04:57:49;98815.75;;;17.53;47.33
30302;BME280;17111;52.130;5.028;2023-03-14T05:00:16;98831.81;;;17.53;47.35
30302;BME280;17111;52.130;5.028;2023-03-14T05:02:44;98811.41;;;17.52;47.29
30302;BME280;17111;52.130;5.028;2023-03-14T05:05:11;98827.47;;;17.52;47.90
30302;BME280;17111;52.130;5.028;2023-03-14T05:07:38;98818.63;;;17.51;47.13
30302;BME280;17111;52.130;5.028;2023-03-14T05:10:05;98823.97;;;17.51;47.28
30302;BME280;17111;52.130;5.028;2023-03-14T05:12:31;98828.50;;;17.51;47.63
30302;BME280;17111;52.130;5.028;2023-03-14T05:14:58;98825.81;;;17.51;47.48
30302;BME280;17111;52.130;5.028;2023-03-14T05:17:24;98832.22;;;17.50;47.78
30302;BME280;17111;52.130;5.028;2023-03-14T05:19:51;98821.50;;;17.50;47.16
30302;BME280;17111;52.130;5.028;2023-03-14T05:22:18;98815.31;;;17.49;47.48
30302;BME280;17111;52.130;5.028;2023-03-14T05:24:44;98802.94;;;17.48;47.29
30302;BME280;17111;52.130;5.028;2023-03-14T05:27:11;98798.63;;;17.47;47.53
30302;BME280;17111;52.130;5.028;2023-03-14T05:29:37;98792.66;;;17.45;47.85
30302;BME280;17111;52.130;5.028;2023-03-14T05:32:04;98801.50;;;17.46;47.50
30302;BME280;17111;52.130;5.028;2023-03-14T05:34:30;98795.50;;;17.44;47.59
30302;BME280;17111;52.130;5.028;2023-03-14T05:36:57;98799.00;;;17.44;47.52
30302;BME280;17111;52.130;5.028;2023-03-14T05:39:24;98796.31;;;17.44;47.86
30302;BME280;17111;52.130;5.028;2023-03-14T05:41:50;98798.41;;;17.42;47.70
30302;BME280;17111;52.130;5.028;2023-03-14T05:44:17;98799.44;;;17.41;48.05
30302;BME280;17111;52.130;5.028;2023-03-14T05:46:43;98801.28;;;17.41;48.00
30302;BME280;17111;52.130;5.028;2023-03-14T05:49:10;98801.28;;;17.41;48.11
30302;BME280;17111;52.130;5.028;2023-03-14T05:51:36;98798.78;;;17.39;48.09
30302;BME280;17111;52.130;5.028;2023-03-14T05:54:03;98806.22;;;17.37;48.17
30302;BME280;17111;52.130;5.028;2023-03-14T05:56:29;98830.31;;;17.37;48.25
30302;BME280;17111;52.130;5.028;2023-03-14T05:58:56;98830.50;;;17.36;47.93
30302;BME280;17111;52.130;5.028;2023-03-14T06:01:22;98843.06;;;17.35;48.40
30302;BME280;17111;52.130;5.028;2023-03-14T06:03:49;98840.38;;;17.35;47.84
30302;BME280;17111;52.130;5.028;2023-03-14T06:06:15;98846.56;;;17.36;47.82
30302;BME280;17111;52.130;5.028;2023-03-14T06:08:43;98861.81;;;17.35;48.39
30302;BME280;17111;52.130;5.028;2023-03-14T06:11:09;98882.41;;;17.35;47.98
30302;BME280;17111;52.130;5.028;2023-03-14T06:13:36;98890.44;;;17.35;47.84
30302;BME280;17111;52.130;5.028;2023-03-14T06:16:02;98896.81;;;17.34;48.61
30302;BME280;17111;52.130;5.028;2023-03-14T06:18:29;98899.50;;;17.34;48.53
30302;BME280;17111;52.130;5.028;2023-03-14T06:20:56;98907.72;;;17.32;48.43
30302;BME280;17111;52.130;5.028;2023-03-14T06:23:23;98912.88;;;17.34;48.81
30302;BME280;17111;52.130;5.028;2023-03-14T06:25:50;98925.25;;;17.35;49.01
30302;BME280;17111;52.130;5.028;2023-03-14T06:28:17;98928.81;;;17.42;49.30
30302;BME280;17111;52.130;5.028;2023-03-14T06:30:43;98933.63;;;17.53;48.86
30302;BME280;17111;52.130;5.028;2023-03-14T06:33:10;98944.41;;;17.66;48.75
30302;BME280;17111;52.130;5.028;2023-03-14T06:35:37;98951.91;;;17.78;48.26
30302;BME280;17111;52.130;5.028;2023-03-14T06:38:03;98953.41;;;17.87;48.24
30302;BME280;17111;52.130;5.028;2023-03-14T06:40:30;98964.38;;;17.98;48.08
30302;BME280;17111;52.130;5.028;2023-03-14T06:42:56;98966.91;;;18.07;48.28
30302;BME280;17111;52.130;5.028;2023-03-14T06:45:23;98972.91;;;18.15;48.14
30302;BME280;17111;52.130;5.028;2023-03-14T06:47:49;98982.63;;;18.23;48.01
30302;BME280;17111;52.130;5.028;2023-03-14T06:50:16;98986.19;;;18.30;47.82
30302;BME280;17111;52.130;5.028;2023-03-14T06:52:42;98989.91;;;18.36;47.44
30302;BME280;17111;52.130;5.028;2023-03-14T06:55:15;98999.63;;;18.43;47.73
30302;BME280;17111;52.130;5.028;2023-03-14T06:57:43;99007.88;;;18.48;47.54
30302;BME280;17111;52.130;5.028;2023-03-14T07:00:11;99017.00;;;18.54;47.28
30302;BME280;17111;52.130;5.028;2023-03-14T07:02:39;99019.91;;;18.59;47.40
30302;BME280;17111;52.130;5.028;2023-03-14T07:05:09;99029.00;;;18.65;47.58
30302;BME280;17111;52.130;5.028;2023-03-14T07:07:36;99037.47;;;18.68;47.31
30302;BME280;17111;52.130;5.028;2023-03-14T07:10:03;99049.47;;;18.72;47.28
30302;BME280;17111;52.130;5.028;2023-03-14T07:12:30;99063.31;;;18.76;46.98
30302;BME280;17111;52.130;5.028;2023-03-14T07:14:56;99075.31;;;18.80;47.32
30302;BME280;17111;52.130;5.028;2023-03-14T07:17:37;99092.88;;;18.83;46.88
30302;BME280;17111;52.130;5.028;2023-03-14T07:20:04;99098.47;;;18.88;47.38
30302;BME280;17111;52.130;5.028;2023-03-14T07:22:33;99109.84;;;18.90;47.25
30302;BME280;17111;52.130;5.028;2023-03-14T07:25:00;99122.84;;;18.93;46.77
30302;BME280;17111;52.130;5.028;2023-03-14T07:27:27;99126.16;;;18.95;47.18
30302;BME280;17111;52.130;5.028;2023-03-14T07:29:53;99136.50;;;18.98;46.88
30302;BME280;17111;52.130;5.028;2023-03-14T07:32:20;99146.22;;;18.99;46.84
30302;BME280;17111;52.130;5.028;2023-03-14T07:34:46;99154.88;;;19.01;46.99
30302;BME280;17111;52.130;5.028;2023-03-14T07:37:13;99158.22;;;19.03;46.89
30302;BME280;17111;52.130;5.028;2023-03-14T07:39:40;99171.63;;;19.03;46.94
30302;BME280;17111;52.130;5.028;2023-03-14T07:42:06;99171.63;;;19.03;46.76
30302;BME280;17111;52.130;5.028;2023-03-14T07:44:33;99183.59;;;19.01;47.09
30302;BME280;17111;52.130;5.028;2023-03-14T07:46:59;99200.13;;;18.97;46.85
30302;BME280;17111;52.130;5.028;2023-03-14T07:49:26;99217.44;;;18.95;46.47
30302;BME280;17111;52.130;5.028;2023-03-14T07:51:53;99216.19;;;18.91;47.29
30302;BME280;17111;52.130;5.028;2023-03-14T07:54:20;99230.22;;;18.86;46.79
30302;BME280;17111;52.130;5.028;2023-03-14T07:56:46;99253.94;;;18.83;46.36
30302;BME280;17111;52.130;5.028;2023-03-14T07:59:13;99267.97;;;18.78;46.54
30302;BME280;17111;52.130;5.028;2023-03-14T08:01:39;99289.16;;;18.73;46.84
30302;BME280;17111;52.130;5.028;2023-03-14T08:04:06;99294.94;;;18.70;47.00
30302;BME280;17111;52.130;5.028;2023-03-14T08:06:35;99315.94;;;18.66;47.33
30302;BME280;17111;52.130;5.028;2023-03-14T08:09:02;99325.78;;;18.59;47.20
30302;BME280;17111;52.130;5.028;2023-03-14T08:11:28;99334.88;;;18.58;47.41
30302;BME280;17111;52.130;5.028;2023-03-14T08:13:55;99348.09;;;18.60;47.26
30302;BME280;17111;52.130;5.028;2023-03-14T08:16:22;99363.81;;;18.63;47.31
30302;BME280;17111;52.130;5.028;2023-03-14T08:18:48;99378.28;;;18.68;47.38
30302;BME280;17111;52.130;5.028;2023-03-14T08:21:15;99381.28;;;18.73;46.88
30302;BME280;17111;52.130;5.028;2023-03-14T08:23:42;99394.13;;;18.78;46.95
30302;BME280;17111;52.130;5.028;2023-03-14T08:26:08;99407.78;;;18.83;46.75
30302;BME280;17111;52.130;5.028;2023-03-14T08:28:35;99417.09;;;18.87;46.89
30302;BME280;17111;52.130;5.028;2023-03-14T08:31:02;99427.25;;;18.92;47.00
30302;BME280;17111;52.130;5.028;2023-03-14T08:33:29;99437.63;;;18.95;46.70
30302;BME280;17111;52.130;5.028;2023-03-14T08:49:44;99511.69;;;18.89;47.43
30302;BME280;17111;52.130;5.028;2023-03-14T08:52:11;99518.78;;;18.97;47.28
30302;BME280;17111;52.130;5.028;2023-03-14T08:54:37;99524.81;;;18.99;46.43
30302;BME280;17111;52.130;5.028;2023-03-14T08:57:04;99536.38;;;18.99;46.45
30302;BME280;17111;52.130;5.028;2023-03-14T08:59:31;99539.06;;;18.99;46.68
30302;BME280;17111;52.130;5.028;2023-03-14T09:01:58;99541.31;;;18.96;46.62
30302;BME280;17111;52.130;5.028;2023-03-14T09:04:24;99557.63;;;18.94;46.96
30302;BME280;17111;52.130;5.028;2023-03-14T09:06:51;99558.19;;;18.90;46.72
30302;BME280;17111;52.130;5.028;2023-03-14T09:09:18;99572.63;;;18.89;46.86
30302;BME280;17111;52.130;5.028;2023-03-14T09:11:44;99586.44;;;18.86;46.84
30302;BME280;17111;52.130;5.028;2023-03-14T09:14:11;99595.50;;;18.85;47.15
30302;BME280;17111;52.130;5.028;2023-03-14T09:16:37;99606.44;;;18.83;47.10
30302;BME280;17111;52.130;5.028;2023-03-14T09:19:04;99614.84;;;18.80;46.99
30302;BME280;17111;52.130;5.028;2023-03-14T09:21:32;99626.63;;;18.79;46.84
30302;BME280;17111;52.130;5.028;2023-03-14T09:23:58;99635.88;;;18.77;47.02
30302;BME280;17111;52.130;5.028;2023-03-14T09:26:25;99639.59;;;18.76;47.40
30302;BME280;17111;52.130;5.028;2023-03-14T09:28:51;99655.06;;;18.73;47.13
30302;BME280;17111;52.130;5.028;2023-03-14T09:31:18;99664.75;;;18.74;47.07
30302;BME280;17111;52.130;5.028;2023-03-14T09:33:44;99677.81;;;18.78;46.57
30302;BME280;17111;52.130;5.028;2023-03-14T09:36:11;99689.00;;;18.81;46.59
30302;BME280;17111;52.130;5.028;2023-03-14T09:38:38;99691.13;;;18.86;46.73
30302;BME280;17111;52.130;5.028;2023-03-14T09:41:16;99696.94;;;18.89;46.96
30302;BME280;17111;52.130;5.028;2023-03-14T09:43:45;99705.28;;;18.94;46.66
30302;BME280;17111;52.130;5.028;2023-03-14T09:46:13;99716.50;;;18.98;46.47
30302;BME280;17111;52.130;5.028;2023-03-14T09:48:40;99718.78;;;19.01;46.63
30302;BME280;17111;52.130;5.028;2023-03-14T09:51:13;99729.34;;;19.03;46.56
30302;BME280;17111;52.130;5.028;2023-03-14T09:53:43;99729.16;;;19.04;46.31
30302;BME280;17111;52.130;5.028;2023-03-14T09:56:28;99744.63;;;19.02;46.34
30302;BME280;17111;52.130;5.028;2023-03-14T09:59:00;99754.56;;;19.02;46.34
30302;BME280;17111;52.130;5.028;2023-03-14T10:01:30;99776.41;;;18.98;46.39
30302;BME280;17111;52.130;5.028;2023-03-14T10:04:07;99792.03;;;18.95;46.34
30302;BME280;17111;52.130;5.028;2023-03-14T10:06:36;99802.31;;;18.91;46.18
30302;BME280;17111;52.130;5.028;2023-03-14T10:09:03;99823.34;;;18.88;46.38
30302;BME280;17111;52.130;5.028;2023-03-14T10:11:32;99818.72;;;18.82;46.49
30302;BME280;17111;52.130;5.028;2023-03-14T10:16:33;99829.34;;;18.75;46.68
30302;BME280;17111;52.130;5.028;2023-03-14T10:19:06;99835.53;;;18.76;47.15
30302;BME280;17111;52.130;5.028;2023-03-14T10:21:44;99844.91;;;18.80;46.85
30302;BME280;17111;52.130;5.028;2023-03-14T10:26:55;99872.31;;;18.90;46.95
30302;BME280;17111;52.130;5.028;2023-03-14T10:29:24;99875.44;;;18.93;46.79
30302;BME280;17111;52.130;5.028;2023-03-14T10:32:05;99885.84;;;18.96;46.83
30302;BME280;17111;52.130;5.028;2023-03-14T10:34:36;99893.34;;;19.01;46.70
30302;BME280;17111;52.130;5.028;2023-03-14T10:37:20;99906.59;;;19.03;46.40
30302;BME280;17111;52.130;5.028;2023-03-14T10:39:52;99925.03;;;19.06;46.50
30302;BME280;17111;52.130;5.028;2023-03-14T10:42:24;99925.88;;;19.06;46.72
30302;BME280;17111;52.130;5.028;2023-03-14T10:45:47;99952.06;;;19.04;46.64
30302;BME280;17111;52.130;5.028;2023-03-14T10:47:48;99954.75;;;19.04;46.14
30302;BME280;17111;52.130;5.028;2023-03-14T10:50:30;99965.84;;;19.01;46.34
30302;BME280;17111;52.130;5.028;2023-03-14T10:53:01;99974.28;;;18.98;46.45
30302;BME280;17111;52.130;5.028;2023-03-14T10:55:42;99978.16;;;18.95;46.09
30302;BME280;17111;52.130;5.028;2023-03-14T11:03:40;100023.63;;;18.97;46.52
30302;BME280;17111;52.130;5.028;2023-03-14T11:09:20;100047.09;;;19.03;46.90
30302;BME280;17111;52.130;5.028;2023-03-14T11:11:49;100041.38;;;19.06;46.35
30302;BME280;17111;52.130;5.028;2023-03-14T11:14:38;100054.41;;;19.09;46.13
30302;BME280;17111;52.130;5.028;2023-03-14T11:17:16;100067.50;;;19.12;46.56
30302;BME280;17111;52.130;5.028;2023-03-14T11:19:52;100074.38;;;19.15;46.56
30302;BME280;17111;52.130;5.028;2023-03-14T11:22:41;100086.59;;;19.17;46.58
30302;BME280;17111;52.130;5.028;2023-03-14T11:28:12;100107.38;;;19.23;46.20
30302;BME280;17111;52.130;5.028;2023-03-14T11:33:17;100115.72;;;19.29;46.17
30302;BME280;17111;52.130;5.028;2023-03-14T11:36:08;100115.56;;;19.30;45.78
30302;BME280;17111;52.130;5.028;2023-03-14T11:38:43;100133.97;;;19.33;45.73
30302;BME280;17111;52.130;5.028;2023-03-14T11:43:59;100148.94;;;19.36;45.91
30302;BME280;17111;52.130;5.028;2023-03-14T11:46:33;100150.59;;;19.37;45.63
30302;BME280;17111;52.130;5.028;2023-03-14T11:49:18;100165.72;;;19.38;45.76
30302;BME280;17111;52.130;5.028;2023-03-14T11:51:52;100162.66;;;19.41;45.48
30302;BME280;17111;52.130;5.028;2023-03-14T11:54:43;100175.09;;;19.42;45.44
30302;BME280;17111;52.130;5.028;2023-03-14T11:57:20;100188.34;;;19.43;45.35
30302;BME280;17111;52.130;5.028;2023-03-14T12:05:40;100190.84;;;19.45;45.65
30302;BME280;17111;52.130;5.028;2023-03-14T12:10:43;100206.97;;;19.45;44.52
30302;BME280;17111;52.130;5.028;2023-03-14T12:13:13;100214.88;;;19.46;44.72
30302;BME280;17111;52.130;5.028;2023-03-14T12:15:56;100226.25;;;19.48;44.96
30302;BME280;17111;52.130;5.028;2023-03-14T12:18:28;100226.94;;;19.51;45.16
30302;BME280;17111;52.130;5.028;2023-03-14T12:20:58;100232.78;;;19.54;44.52
30302;BME280;17111;52.130;5.028;2023-03-14T12:23:27;100243.34;;;19.56;44.81
30302;BME280;17111;52.130;5.028;2023-03-14T12:26:16;100244.19;;;19.56;44.33
30302;BME280;17111;52.130;5.028;2023-03-14T12:39:21;100268.66;;;19.69;43.91
30302;BME280;17111;52.130;5.028;2023-03-14T12:41:53;100269.13;;;19.73;43.92
30302;BME280;17111;52.130;5.028;2023-03-14T12:46:57;100273.97;;;19.78;43.95
30302;BME280;17111;52.130;5.028;2023-03-14T12:49:32;100295.31;;;19.79;43.27
30302;BME280;17111;52.130;5.028;2023-03-14T12:52:02;100301.19;;;19.83;43.55
30302;BME280;17111;52.130;5.028;2023-03-14T12:59:57;100322.03;;;19.81;42.79
30302;BME280;17111;52.130;5.028;2023-03-14T13:02:29;100324.06;;;19.79;43.32
30302;BME280;17111;52.130;5.028;2023-03-14T13:12:56;100339.19;;;19.80;43.13
30302;BME280;17111;52.130;5.028;2023-03-14T13:15:31;100360.50;;;19.81;43.32
30302;BME280;17111;52.130;5.028;2023-03-14T13:18:35;100359.53;;;19.82;42.64
30302;BME280;17111;52.130;5.028;2023-03-14T13:21:11;100364.72;;;19.84;43.15
30302;BME280;17111;52.130;5.028;2023-03-14T13:23:39;100376.13;;;19.86;43.34
30302;BME280;17111;52.130;5.028;2023-03-14T13:26:13;100386.03;;;19.85;42.43
30302;BME280;17111;52.130;5.028;2023-03-14T13:28:41;100385.03;;;19.86;43.16
30302;BME280;17111;52.130;5.028;2023-03-14T13:31:21;100398.31;;;19.88;42.90
30302;BME280;17111;52.130;5.028;2023-03-14T13:33:59;100390.25;;;19.88;42.96
30302;BME280;17111;52.130;5.028;2023-03-14T13:36:26;100403.50;;;19.89;43.04
30302;BME280;17111;52.130;5.028;2023-03-14T13:39:00;100409.06;;;19.88;42.66
30302;BME280;17111;52.130;5.028;2023-03-14T13:41:27;100407.22;;;19.88;42.03
30302;BME280;17111;52.130;5.028;2023-03-14T13:44:05;100431.41;;;19.88;42.16
30302;BME280;17111;52.130;5.028;2023-03-14T13:46:34;100432.25;;;19.89;42.52
30302;BME280;17111;52.130;5.028;2023-03-14T13:49:03;100444.88;;;19.88;42.09
30302;BME280;17111;52.130;5.028;2023-03-14T13:51:31;100441.53;;;19.86;42.67
30302;BME280;17111;52.130;5.028;2023-03-14T13:54:01;100455.13;;;19.85;41.87
30302;BME280;17111;52.130;5.028;2023-03-14T13:56:32;100460.69;;;19.83;42.39
30302;BME280;17111;52.130;5.028;2023-03-14T13:58:59;100459.19;;;19.81;42.23
30302;BME280;17111;52.130;5.028;2023-03-14T14:01:28;100474.66;;;19.79;42.03
30302;BME280;17111;52.130;5.028;2023-03-14T14:04:02;100482.25;;;19.75;41.76
30302;BME280;17111;52.130;5.028;2023-03-14T14:06:38;100486.09;;;19.72;42.07
30302;BME280;17111;52.130;5.028;2023-03-14T14:09:14;100500.56;;;19.71;42.38
30302;BME280;17111;52.130;5.028;2023-03-14T14:11:57;100503.59;;;19.68;41.61
30302;BME280;17111;52.130;5.028;2023-03-14T14:17:39;100514.69;;;19.65;41.87
30302;BME280;17111;52.130;5.028;2023-03-14T14:22:44;100531.84;;;19.64;41.74
30302;BME280;17111;52.130;5.028;2023-03-14T14:25:14;100532.53;;;19.66;42.27
30302;BME280;17111;52.130;5.028;2023-03-14T14:27:43;100538.41;;;19.70;41.51
30302;BME280;17111;52.130;5.028;2023-03-14T14:32:44;100553.00;;;19.76;41.78
30302;BME280;17111;52.130;5.028;2023-03-14T14:37:49;100568.94;;;19.85;41.27
30302;BME280;17111;52.130;5.028;2023-03-14T14:40:24;100569.41;;;19.89;40.89
30302;BME280;17111;52.130;5.028;2023-03-14T14:42:51;100577.84;;;19.94;40.87